Lamco Airport

Jump to: basic info | weather | comments

Related pages: nearby airports | nearby navaids | notams | map

Basic information (top)

Codes: UCN GLLB
Location: lon 5.867000, lat -10.050000, elev 30 ft / 9 m msl
Status: small_airport
Scheduled airline service: no
Links: Wikipedia Mobile

Weather (top)

Current conditions for Roberts International Airport 29nm (53km) NW (rec'd 2014/07/29 10:30Z):

GLRB 291030Z 20006KT 6000 RA FEW004 BKN013 24/23 Q1015 TEMPO RA

Airport forecast for Roberts International Airport 29nm (53km) NW (rec'd 2014/07/29 18:51Z):

TAF TAF GLRB 291600Z 2918/3024 21008KT 9000 BKN015 
      TEMPO 2920/3000 08005KT 6000 RA/RADZ SCT005 BKN012 
      TEMPO 3002/3006 12004KT 8000 -RA SCT006 BKN012

Latest comments (top)

No comments yet for Lamco Airport

More... (top)

See also NOTAMs and nearby airports and navaids, or visit the Lamco Airport page at the main OurAirports website..